Newtonville, New Jersey
Current Conditions -  °F | °C
As of 3:54 AM on Wednesday 26 Nov 2014 (Local Time) from KACY Reporting Station
Light Rain Light Rain  
Wind Chill: 40°   Ceiling: 8500
Heat Index: 44°   Visibility: 10mi
Dew Point: 39°   Wind: 7mph
Humidity: 82%   Direction: 30°NNE
Pressure: 30.09"   Gusts: NA
Location:  39.61°N, 74.8°W
Report Text: KACY 260854Z 03006KT 10SM -RA OVC085 07/04 A3009 RMK AO2 SLP188 P0004 60005 T00670039 58024
Loading
Personal Weather Stations






























Interactive Weather Map New forecast layout! Learn more

10-Day Weather Forecast

Advertisements
Track Severe Weather on mobile